createdAt,value
2019-03-26T00:01:59.252Z,4.00
2019-03-26T00:04:29.232Z,4.00
2019-03-26T00:06:59.157Z,4.00
2019-03-26T00:09:29.105Z,4.00
2019-03-26T00:11:59.587Z,3.90
2019-03-26T00:14:29.570Z,3.90
2019-03-26T00:16:59.574Z,3.90
2019-03-26T00:19:29.602Z,3.90
2019-03-26T00:21:59.598Z,4.00
2019-03-26T00:24:30.741Z,4.00
2019-03-26T00:27:01.408Z,4.00
2019-03-26T00:29:31.436Z,4.00
2019-03-26T00:32:01.712Z,4.00
2019-03-26T00:34:31.676Z,4.00
2019-03-26T00:37:01.608Z,4.00
2019-03-26T00:39:31.586Z,4.10
2019-03-26T00:42:02.078Z,4.10
2019-03-26T00:44:32.187Z,4.10
2019-03-26T00:47:02.153Z,4.20
2019-03-26T00:49:32.091Z,4.20
2019-03-26T00:52:02.418Z,4.30
2019-03-26T00:54:32.692Z,4.30
2019-03-26T00:57:02.806Z,4.40
2019-03-26T00:59:32.826Z,4.40
2019-03-26T01:02:02.813Z,4.50
2019-03-26T01:04:33.483Z,4.40
2019-03-26T01:07:03.599Z,4.50
2019-03-26T01:09:33.606Z,4.50
2019-03-26T01:12:03.695Z,4.50
2019-03-26T01:14:33.617Z,4.50
2019-03-26T01:17:03.627Z,4.60
2019-03-26T01:19:33.621Z,4.60
2019-03-26T01:22:03.557Z,4.60
2019-03-26T01:24:33.986Z,4.60
2019-03-26T01:27:03.950Z,4.70
2019-03-26T01:29:33.990Z,4.70
2019-03-26T01:32:04.355Z,4.70
2019-03-26T01:34:45.484Z,4.60
2019-03-26T01:37:06.455Z,4.60
2019-03-26T01:39:36.357Z,4.60
2019-03-26T01:42:06.954Z,4.60
2019-03-26T01:44:36.971Z,4.60
2019-03-26T01:47:06.957Z,4.60
2019-03-26T01:49:36.960Z,4.60
2019-03-26T01:52:06.948Z,4.70
2019-03-26T01:54:36.930Z,4.60
2019-03-26T01:57:06.935Z,4.70
2019-03-26T01:59:36.845Z,4.60
2019-03-26T02:02:06.851Z,4.60
2019-03-26T02:04:36.788Z,4.60
2019-03-26T02:07:07.152Z,4.60
2019-03-26T02:09:37.058Z,4.60
2019-03-26T02:12:06.995Z,4.60
2019-03-26T02:14:37.237Z,4.50
2019-03-26T02:17:07.211Z,4.50
2019-03-26T02:19:37.185Z,4.40
2019-03-26T02:22:07.130Z,4.50
2019-03-26T02:24:37.067Z,4.50
2019-03-26T02:27:06.991Z,4.50
2019-03-26T02:29:36.882Z,4.50
2019-03-26T02:32:06.780Z,4.40
2019-03-26T02:34:36.672Z,4.40
2019-03-26T02:37:07.444Z,4.40
2019-03-26T02:39:37.730Z,4.30
2019-03-26T02:42:08.069Z,4.40
2019-03-26T02:44:37.983Z,4.40
2019-03-26T02:47:07.896Z,4.30
2019-03-26T02:49:37.817Z,4.30
2019-03-26T02:52:07.782Z,4.30
2019-03-26T02:54:37.723Z,4.40
2019-03-26T02:57:07.677Z,4.40
2019-03-26T02:59:37.662Z,4.40
2019-03-26T03:02:07.581Z,4.40
2019-03-26T03:04:37.797Z,4.50
2019-03-26T03:07:07.744Z,4.40
2019-03-26T03:09:37.673Z,4.40
2019-03-26T03:12:07.630Z,4.40
2019-03-26T03:14:37.565Z,4.40
2019-03-26T03:17:07.522Z,4.40
2019-03-26T03:19:37.784Z,4.40
2019-03-26T03:22:07.695Z,4.40
2019-03-26T03:24:37.649Z,4.40
2019-03-26T03:27:08.102Z,4.40
2019-03-26T03:29:38.038Z,4.40
2019-03-26T03:32:08.284Z,4.40
2019-03-26T03:34:38.206Z,4.30
2019-03-26T03:37:08.635Z,4.40
2019-03-26T03:39:38.498Z,4.30
2019-03-26T03:42:08.442Z,4.40
2019-03-26T03:44:38.378Z,4.30
2019-03-26T03:47:08.748Z,4.40
2019-03-26T03:49:38.621Z,4.40
2019-03-26T03:52:09.384Z,4.40
2019-03-26T03:54:42.206Z,4.40
2019-03-26T03:57:13.988Z,4.30
2019-03-26T03:59:45.696Z,4.30
2019-03-26T04:02:15.925Z,4.30
2019-03-26T04:04:45.844Z,4.30
2019-03-26T04:07:15.812Z,4.30
2019-03-26T04:09:45.759Z,4.30
2019-03-26T04:12:15.977Z,4.30
2019-03-26T04:14:45.900Z,4.30
2019-03-26T04:17:15.839Z,4.40
2019-03-26T04:19:45.770Z,4.30
2019-03-26T04:22:15.764Z,4.30
2019-03-26T04:24:45.605Z,4.30
2019-03-26T04:27:15.477Z,4.30
2019-03-26T04:29:45.415Z,4.30
2019-03-26T04:32:16.020Z,4.30
2019-03-26T04:34:45.951Z,4.30
2019-03-26T04:37:15.815Z,4.20
2019-03-26T04:39:45.695Z,4.20
2019-03-26T04:42:15.605Z,4.20
2019-03-26T04:44:45.512Z,4.20
2019-03-26T04:47:15.468Z,4.20
2019-03-26T04:49:45.665Z,4.20
2019-03-26T04:52:15.573Z,4.20
2019-03-26T04:54:45.464Z,4.20
2019-03-26T04:57:15.336Z,4.20
2019-03-26T04:59:45.209Z,4.20
2019-03-26T05:02:15.159Z,4.30
2019-03-26T05:04:45.025Z,4.30
2019-03-26T05:07:14.867Z,4.30
2019-03-26T05:09:44.844Z,4.30
2019-03-26T05:12:14.691Z,4.30
2019-03-26T05:14:45.965Z,4.30
2019-03-26T05:17:15.888Z,4.30
2019-03-26T05:19:45.775Z,4.30
2019-03-26T05:22:24.188Z,4.30
2019-03-26T05:24:47.176Z,4.20
2019-03-26T05:27:17.115Z,4.20
2019-03-26T05:29:47.063Z,4.20
2019-03-26T05:32:16.989Z,4.20
2019-03-26T05:34:46.881Z,4.20
2019-03-26T05:37:17.101Z,4.20
2019-03-26T05:39:46.965Z,4.20
2019-03-26T05:42:16.899Z,4.20
2019-03-26T05:44:46.781Z,4.20
2019-03-26T05:47:16.849Z,4.20
2019-03-26T05:49:46.818Z,4.20
2019-03-26T05:52:16.756Z,4.10
2019-03-26T05:54:46.684Z,4.10
2019-03-26T05:57:16.587Z,4.10
2019-03-26T05:59:46.578Z,4.20
2019-03-26T06:02:18.028Z,4.20
2019-03-26T06:04:48.219Z,4.20
2019-03-26T06:07:18.418Z,4.20
2019-03-26T06:09:48.757Z,4.20
2019-03-26T06:12:18.774Z,4.20
2019-03-26T06:14:48.728Z,4.30
2019-03-26T06:17:18.634Z,4.30
2019-03-26T06:19:48.524Z,4.30
2019-03-26T06:22:18.466Z,4.40
2019-03-26T06:24:48.400Z,4.50
2019-03-26T06:27:18.292Z,4.50
2019-03-26T06:29:48.231Z,4.60
2019-03-26T06:32:18.146Z,4.70
2019-03-26T06:34:48.196Z,4.70
2019-03-26T06:37:18.512Z,4.70
2019-03-26T06:39:48.469Z,4.80
2019-03-26T06:42:18.825Z,4.90
2019-03-26T06:44:48.874Z,5.00
2019-03-26T06:47:18.855Z,5.00
2019-03-26T06:49:48.815Z,5.00
2019-03-26T06:52:18.786Z,5.10
2019-03-26T06:54:51.585Z,5.10
2019-03-26T06:57:20.716Z,5.20
2019-03-26T06:59:50.582Z,5.20
2019-03-26T07:02:20.904Z,5.20
2019-03-26T07:04:51.195Z,5.20
2019-03-26T07:07:30.814Z,5.20
2019-03-26T07:09:52.874Z,5.20
2019-03-26T07:12:22.794Z,5.20
2019-03-26T07:14:52.719Z,5.20
2019-03-26T07:17:22.680Z,5.20
2019-03-26T07:19:53.050Z,5.30
2019-03-26T07:22:23.066Z,5.30
2019-03-26T07:24:53.110Z,5.30
2019-03-26T07:27:23.054Z,5.40
2019-03-26T07:29:52.947Z,5.50
2019-03-26T07:32:22.894Z,5.50
2019-03-26T07:34:53.269Z,5.60
2019-03-26T07:37:23.189Z,5.60
2019-03-26T07:39:53.108Z,5.70
2019-03-26T07:42:23.304Z,5.70
2019-03-26T07:44:53.214Z,5.80
2019-03-26T07:47:24.407Z,5.80
2019-03-26T07:49:56.790Z,5.80
2019-03-26T07:52:26.778Z,5.90
2019-03-26T07:54:56.670Z,5.90
2019-03-26T07:57:27.002Z,5.90
2019-03-26T07:59:56.942Z,5.90
2019-03-26T08:02:26.949Z,5.90
2019-03-26T08:04:56.889Z,6.00
2019-03-26T08:07:26.856Z,6.10
2019-03-26T08:09:56.817Z,6.20
2019-03-26T08:12:26.748Z,6.20
2019-03-26T08:14:56.752Z,6.20
2019-03-26T08:17:26.669Z,6.20
2019-03-26T08:19:56.604Z,6.30
2019-03-26T08:22:26.985Z,6.30
2019-03-26T08:24:56.976Z,6.40
2019-03-26T08:27:26.883Z,6.40
2019-03-26T08:29:56.910Z,6.40
2019-03-26T08:32:26.810Z,6.40
2019-03-26T08:34:56.789Z,6.40
2019-03-26T08:37:26.742Z,6.40
2019-03-26T08:39:56.727Z,6.40
2019-03-26T08:42:26.696Z,6.40
2019-03-26T08:44:56.795Z,6.50
2019-03-26T08:47:26.634Z,6.50
2019-03-26T08:49:56.585Z,6.50
2019-03-26T08:52:26.534Z,6.60
2019-03-26T08:54:56.577Z,6.60
2019-03-26T08:57:26.528Z,6.70
2019-03-26T08:59:56.438Z,6.70
2019-03-26T09:02:26.829Z,6.80
2019-03-26T09:04:56.778Z,6.90
2019-03-26T09:07:26.694Z,6.90
2019-03-26T09:09:56.558Z,6.90
2019-03-26T09:12:26.875Z,7.00
2019-03-26T09:14:57.038Z,7.00
2019-03-26T09:17:26.974Z,7.10
2019-03-26T09:19:56.905Z,7.10
2019-03-26T09:22:26.821Z,7.20
2019-03-26T09:24:56.786Z,7.20
2019-03-26T09:27:26.815Z,7.20
2019-03-26T09:29:56.709Z,7.30
2019-03-26T09:32:26.681Z,7.30
2019-03-26T09:34:56.528Z,7.40
2019-03-26T09:37:26.511Z,7.40
2019-03-26T09:39:56.431Z,7.40
2019-03-26T09:42:26.343Z,7.40
2019-03-26T09:44:56.766Z,7.50
2019-03-26T09:47:26.801Z,7.50
2019-03-26T09:49:56.725Z,7.60
2019-03-26T09:52:26.619Z,7.60
2019-03-26T09:54:56.554Z,7.70
2019-03-26T09:57:26.500Z,7.80
2019-03-26T09:59:56.801Z,7.80
2019-03-26T10:02:27.394Z,7.80
2019-03-26T10:04:57.638Z,7.80
2019-03-26T10:07:27.615Z,7.90
2019-03-26T10:09:57.527Z,7.90
2019-03-26T10:12:27.429Z,7.90
2019-03-26T10:14:57.330Z,7.90
2019-03-26T10:17:27.250Z,7.90
2019-03-26T10:19:57.123Z,7.90
2019-03-26T10:22:27.041Z,7.90
2019-03-26T10:24:57.065Z,7.90
2019-03-26T10:27:26.979Z,7.80
2019-03-26T10:29:56.880Z,7.80
2019-03-26T10:32:26.735Z,7.80
2019-03-26T10:34:56.875Z,7.70
2019-03-26T10:37:26.953Z,7.60
2019-03-26T10:39:56.815Z,7.50
2019-03-26T10:42:26.691Z,7.50
2019-03-26T10:44:56.883Z,7.50
2019-03-26T10:47:26.843Z,7.50
2019-03-26T10:49:57.199Z,7.40
2019-03-26T10:52:30.667Z,7.40
2019-03-26T10:54:58.761Z,7.40
2019-03-26T10:57:29.165Z,7.40
2019-03-26T10:59:59.082Z,7.40
2019-03-26T11:02:29.225Z,7.40
2019-03-26T11:04:59.241Z,7.40
2019-03-26T11:07:29.267Z,7.50
2019-03-26T11:09:59.274Z,7.50
2019-03-26T11:12:29.197Z,7.50
2019-03-26T11:14:59.192Z,7.50
2019-03-26T11:17:29.149Z,7.60
2019-03-26T11:19:59.103Z,7.70
2019-03-26T11:22:29.388Z,7.70
2019-03-26T11:24:59.353Z,7.70
2019-03-26T11:27:29.367Z,7.70
2019-03-26T11:29:59.328Z,7.70
2019-03-26T11:32:29.291Z,7.70
2019-03-26T11:34:59.191Z,7.60
2019-03-26T11:37:47.967Z,7.70
2019-03-26T11:40:18.326Z,7.60
2019-03-26T11:42:49.086Z,7.70
2019-03-26T11:45:20.714Z,7.70
2019-03-26T11:47:50.731Z,7.70
2019-03-26T11:50:20.703Z,7.60
2019-03-26T11:52:50.908Z,7.70
2019-03-26T11:55:21.945Z,7.70
2019-03-26T11:57:52.101Z,7.70
2019-03-26T12:00:27.034Z,7.70
2019-03-26T12:02:57.049Z,7.70
2019-03-26T12:05:27.013Z,7.60
2019-03-26T12:07:56.990Z,7.70
2019-03-26T12:10:27.754Z,7.60
2019-03-26T12:12:57.661Z,7.50
2019-03-26T12:15:27.633Z,7.50
2019-03-26T12:17:57.596Z,7.50
2019-03-26T12:20:27.566Z,7.50
2019-03-26T12:22:57.598Z,7.50
2019-03-26T12:25:27.928Z,7.50
2019-03-26T12:27:58.112Z,7.60
2019-03-26T12:30:35.804Z,7.70
2019-03-26T12:33:06.376Z,7.80
2019-03-26T12:35:36.436Z,7.80
2019-03-26T12:38:24.533Z,7.80
2019-03-26T12:40:54.918Z,7.90
2019-03-26T12:43:24.971Z,7.90
2019-03-26T12:45:54.919Z,8.00
2019-03-26T12:48:24.900Z,8.10
2019-03-26T12:50:54.881Z,8.10
2019-03-26T12:53:24.825Z,8.10
2019-03-26T12:55:54.828Z,8.00
2019-03-26T12:58:31.700Z,7.90
2019-03-26T13:00:56.314Z,7.90
2019-03-26T13:03:26.242Z,7.90
2019-03-26T13:05:56.422Z,8.00
2019-03-26T13:08:26.394Z,8.10
2019-03-26T13:10:56.349Z,8.10
2019-03-26T13:13:26.376Z,8.20
2019-03-26T13:15:56.309Z,8.20
2019-03-26T13:18:26.151Z,8.20
2019-03-26T13:20:56.496Z,8.20
2019-03-26T13:23:26.486Z,8.20
2019-03-26T13:25:56.720Z,8.20
2019-03-26T13:28:26.590Z,8.20
2019-03-26T13:30:56.590Z,8.30
2019-03-26T13:33:26.632Z,8.30
2019-03-26T13:35:56.577Z,8.30
2019-03-26T13:38:27.044Z,8.30
2019-03-26T13:40:56.932Z,8.30
2019-03-26T13:43:26.928Z,8.30
2019-03-26T13:45:56.820Z,8.30
2019-03-26T13:48:26.944Z,8.40
2019-03-26T13:50:56.892Z,8.40
2019-03-26T13:53:26.804Z,8.50
2019-03-26T13:55:56.622Z,8.50
2019-03-26T13:58:26.612Z,8.60
2019-03-26T14:00:56.550Z,8.70
2019-03-26T14:03:26.538Z,8.70
2019-03-26T14:05:56.510Z,8.80
2019-03-26T14:08:26.575Z,8.80
2019-03-26T14:10:56.542Z,8.80
2019-03-26T14:13:26.480Z,8.80
2019-03-26T14:15:56.446Z,8.80
2019-03-26T14:18:26.374Z,8.90
2019-03-26T14:20:56.276Z,8.90
2019-03-26T14:23:26.698Z,8.90
2019-03-26T14:25:56.788Z,9.00
2019-03-26T14:28:45.550Z,9.00
2019-03-26T14:31:15.480Z,9.00
2019-03-26T14:33:45.911Z,9.10
2019-03-26T14:36:15.918Z,9.00
2019-03-26T14:38:46.314Z,9.00
2019-03-26T14:41:16.239Z,9.00
2019-03-26T14:43:46.184Z,9.00
2019-03-26T14:46:16.140Z,8.90
2019-03-26T14:48:46.102Z,8.90
2019-03-26T14:51:16.084Z,8.80
2019-03-26T14:53:46.473Z,8.90
2019-03-26T14:56:16.425Z,8.90
2019-03-26T14:58:46.278Z,9.10
2019-03-26T15:01:16.173Z,9.00
2019-03-26T15:03:46.166Z,9.00
2019-03-26T15:06:16.088Z,9.10
2019-03-26T15:08:46.037Z,9.00
2019-03-26T15:11:15.927Z,9.00
2019-03-26T15:13:49.095Z,8.80
2019-03-26T15:16:17.422Z,8.70
2019-03-26T15:18:47.349Z,8.70
2019-03-26T15:21:17.343Z,9.00
2019-03-26T15:23:47.284Z,9.60
2019-03-26T15:26:17.609Z,10.20
2019-03-26T15:28:47.578Z,10.50
2019-03-26T15:31:17.603Z,10.50
2019-03-26T15:33:47.534Z,10.30
2019-03-26T15:36:17.472Z,10.10
2019-03-26T15:38:47.773Z,10.00
2019-03-26T15:41:21.888Z,9.80
2019-03-26T15:43:49.532Z,9.70
2019-03-26T15:46:19.422Z,9.70
2019-03-26T15:48:49.443Z,9.60
2019-03-26T15:51:19.362Z,9.60
2019-03-26T15:53:49.364Z,9.60
2019-03-26T15:56:19.307Z,9.50
2019-03-26T15:58:49.311Z,9.40
2019-03-26T16:01:19.276Z,9.40
2019-03-26T16:03:49.200Z,9.30
2019-03-26T16:06:19.180Z,9.30
2019-03-26T16:08:49.138Z,9.30
2019-03-26T16:11:19.104Z,9.20
2019-03-26T16:13:49.010Z,9.20
2019-03-26T16:16:18.949Z,9.10
2019-03-26T16:18:48.869Z,9.20
2019-03-26T16:21:18.916Z,9.20
2019-03-26T16:23:48.753Z,9.10
2019-03-26T16:26:20.755Z,9.20
2019-03-26T16:28:50.541Z,9.20
2019-03-26T16:31:20.572Z,9.20
2019-03-26T16:33:50.500Z,9.20
2019-03-26T16:36:20.716Z,9.10
2019-03-26T16:38:50.805Z,9.00
2019-03-26T16:41:20.720Z,9.00
2019-03-26T16:43:50.648Z,9.00
2019-03-26T16:46:20.547Z,9.00
2019-03-26T16:48:50.598Z,8.90
2019-03-26T16:51:20.564Z,8.90
2019-03-26T16:53:50.533Z,8.90
2019-03-26T16:56:20.893Z,8.90
2019-03-26T16:58:50.819Z,8.90
2019-03-26T17:01:20.731Z,8.80
2019-03-26T17:03:50.658Z,8.80
2019-03-26T17:06:20.713Z,8.80
2019-03-26T17:08:50.713Z,8.80
2019-03-26T17:11:20.641Z,8.80
2019-03-26T17:13:50.518Z,8.70
2019-03-26T17:16:20.394Z,8.60
2019-03-26T17:18:50.348Z,8.60
2019-03-26T17:21:20.223Z,8.50
2019-03-26T17:23:50.141Z,8.50
2019-03-26T17:26:20.461Z,8.50
2019-03-26T17:28:50.397Z,8.50
2019-03-26T17:31:20.376Z,8.50
2019-03-26T17:33:50.316Z,8.50
2019-03-26T17:36:20.290Z,8.50
2019-03-26T17:38:50.219Z,8.40
2019-03-26T17:41:20.104Z,8.50
2019-03-26T17:43:49.951Z,8.40
2019-03-26T17:46:19.847Z,8.40
2019-03-26T17:48:49.831Z,8.30
2019-03-26T17:51:19.740Z,8.40
2019-03-26T17:53:49.639Z,8.30
2019-03-26T17:56:19.847Z,8.30
2019-03-26T17:58:49.940Z,8.20
2019-03-26T18:01:19.890Z,8.30
2019-03-26T18:03:50.304Z,8.20
2019-03-26T18:06:20.231Z,8.20
2019-03-26T18:08:50.556Z,8.20
2019-03-26T18:11:20.463Z,8.10
2019-03-26T18:13:50.475Z,8.10
2019-03-26T18:16:20.410Z,8.10
2019-03-26T18:18:50.336Z,8.10
2019-03-26T18:21:20.317Z,8.00
2019-03-26T18:23:50.280Z,8.00
2019-03-26T18:26:20.573Z,8.00
2019-03-26T18:28:50.499Z,8.00
2019-03-26T18:31:20.383Z,7.90
2019-03-26T18:33:50.280Z,8.00
2019-03-26T18:36:20.231Z,7.90
2019-03-26T18:38:50.173Z,7.90
2019-03-26T18:41:20.126Z,7.90
2019-03-26T18:43:50.092Z,7.90
2019-03-26T18:46:20.050Z,7.90
2019-03-26T18:48:50.011Z,7.90
2019-03-26T18:51:19.874Z,7.80
2019-03-26T18:53:49.841Z,7.80
2019-03-26T18:56:20.047Z,7.80
2019-03-26T18:58:49.960Z,7.80
2019-03-26T19:01:19.873Z,7.70
2019-03-26T19:03:50.284Z,7.70
2019-03-26T19:06:20.268Z,7.60
2019-03-26T19:08:50.169Z,7.60
2019-03-26T19:11:20.115Z,7.60
2019-03-26T19:13:50.099Z,7.60
2019-03-26T19:16:20.326Z,7.60
2019-03-26T19:18:50.281Z,7.60
2019-03-26T19:21:20.257Z,7.60
2019-03-26T19:24:03.079Z,7.60
2019-03-26T19:26:21.902Z,7.60
2019-03-26T19:28:51.814Z,7.60
2019-03-26T19:31:21.801Z,7.60
2019-03-26T19:33:51.806Z,7.60
2019-03-26T19:36:21.855Z,7.60
2019-03-26T19:38:51.841Z,7.60
2019-03-26T19:41:21.862Z,7.60
2019-03-26T19:43:52.052Z,7.60
2019-03-26T19:46:22.094Z,7.50
2019-03-26T19:48:52.127Z,7.50
2019-03-26T19:51:22.288Z,7.50
2019-03-26T19:53:52.279Z,7.50
2019-03-26T19:56:22.269Z,7.50
2019-03-26T19:58:52.416Z,7.50
2019-03-26T20:01:22.339Z,7.50
2019-03-26T20:03:52.212Z,7.50
2019-03-26T20:06:22.768Z,7.50
2019-03-26T20:08:53.070Z,7.50
2019-03-26T20:11:23.393Z,7.40
2019-03-26T20:13:53.389Z,7.40
2019-03-26T20:16:23.793Z,7.40
2019-03-26T20:18:53.834Z,7.40
2019-03-26T20:21:23.808Z,7.40
2019-03-26T20:23:54.365Z,7.40
2019-03-26T20:26:24.393Z,7.40
2019-03-26T20:28:54.325Z,7.40
2019-03-26T20:31:24.307Z,7.40
2019-03-26T20:33:54.271Z,7.30
2019-03-26T20:36:24.261Z,7.30
2019-03-26T20:38:54.246Z,7.30
2019-03-26T20:41:24.226Z,7.30
2019-03-26T20:43:54.873Z,7.30
2019-03-26T20:46:24.722Z,7.30
2019-03-26T20:48:54.587Z,7.20
2019-03-26T20:51:24.543Z,7.20
2019-03-26T20:53:54.732Z,7.20
2019-03-26T20:56:25.743Z,7.20
2019-03-26T20:58:55.597Z,7.20
2019-03-26T21:01:25.556Z,7.20
2019-03-26T21:03:55.543Z,7.20
2019-03-26T21:06:25.491Z,7.20
2019-03-26T21:08:55.466Z,7.20
2019-03-26T21:11:25.739Z,7.20
2019-03-26T21:13:56.062Z,7.20
2019-03-26T21:16:26.004Z,7.10
2019-03-26T21:18:56.033Z,7.10
2019-03-26T21:21:25.942Z,7.10
2019-03-26T21:23:55.988Z,7.10
2019-03-26T21:26:25.935Z,7.00
2019-03-26T21:28:55.857Z,7.00
2019-03-26T21:31:25.818Z,7.00
2019-03-26T21:33:55.720Z,7.00
2019-03-26T21:36:25.774Z,7.00
2019-03-26T21:38:55.666Z,7.00
2019-03-26T21:41:25.589Z,6.90
2019-03-26T21:44:04.127Z,6.90
2019-03-26T21:46:27.164Z,6.90
2019-03-26T21:48:57.580Z,6.90
2019-03-26T21:51:27.577Z,6.90
2019-03-26T21:53:57.492Z,6.80
2019-03-26T21:56:27.412Z,6.80
2019-03-26T21:58:57.278Z,6.90
2019-03-26T22:01:27.244Z,6.80
2019-03-26T22:03:57.532Z,6.70
2019-03-26T22:06:27.455Z,6.70
2019-03-26T22:08:57.409Z,6.70
2019-03-26T22:11:27.386Z,6.70
2019-03-26T22:13:57.375Z,6.70
2019-03-26T22:16:27.350Z,6.60
2019-03-26T22:18:57.290Z,6.60
2019-03-26T22:21:27.236Z,6.60
2019-03-26T22:23:57.108Z,6.60
2019-03-26T22:26:26.996Z,6.50
2019-03-26T22:28:56.927Z,6.50
2019-03-26T22:31:26.931Z,6.50
2019-03-26T22:33:56.832Z,6.50
2019-03-26T22:36:26.840Z,6.40
2019-03-26T22:38:56.784Z,6.40
2019-03-26T22:41:26.758Z,6.40
2019-03-26T22:43:56.651Z,6.40
2019-03-26T22:46:26.603Z,6.40
2019-03-26T22:48:56.604Z,6.40
2019-03-26T22:51:26.461Z,6.30
2019-03-26T22:53:56.716Z,6.40
2019-03-26T22:56:26.648Z,6.40
2019-03-26T22:58:56.573Z,6.30
2019-03-26T23:01:26.638Z,6.30
2019-03-26T23:03:56.717Z,6.30
2019-03-26T23:06:26.657Z,6.20
2019-03-26T23:08:56.615Z,6.20
2019-03-26T23:11:26.483Z,6.20
2019-03-26T23:13:56.468Z,6.20
2019-03-26T23:16:26.536Z,6.20
2019-03-26T23:18:56.473Z,6.20
2019-03-26T23:21:26.488Z,6.10
2019-03-26T23:23:56.829Z,6.10
2019-03-26T23:26:26.720Z,6.10
2019-03-26T23:28:56.623Z,6.10
2019-03-26T23:31:26.550Z,6.10
2019-03-26T23:33:56.536Z,6.00
2019-03-26T23:36:26.435Z,6.00
2019-03-26T23:38:56.298Z,6.00
2019-03-26T23:41:26.246Z,6.00
2019-03-26T23:43:56.322Z,6.00
2019-03-26T23:46:26.280Z,5.90
2019-03-26T23:48:56.198Z,5.90
2019-03-26T23:51:26.158Z,5.90
2019-03-26T23:53:56.088Z,5.90
2019-03-26T23:56:26.100Z,5.90
2019-03-26T23:58:56.058Z,5.80
